sensor_id;sensor_type;location;lat;lon;timestamp;pressure;altitude;pressure_sealevel;temperature;humidity
51928;BME280;37953;52.806;18.270;2023-04-06T00:01:13;101323.69;;;2.64;100.00
51928;BME280;37953;52.806;18.270;2023-04-06T00:03:45;101326.13;;;2.61;100.00
51928;BME280;37953;52.806;18.270;2023-04-06T00:06:11;101325.16;;;2.59;100.00
51928;BME280;37953;52.806;18.270;2023-04-06T00:08:37;101325.00;;;2.56;100.00
51928;BME280;37953;52.806;18.270;2023-04-06T00:11:03;101316.34;;;2.54;100.00
51928;BME280;37953;52.806;18.270;2023-04-06T00:13:35;101320.53;;;2.52;100.00
51928;BME280;37953;52.806;18.270;2023-04-06T00:16:00;101322.13;;;2.50;100.00
51928;BME280;37953;52.806;18.270;2023-04-06T00:18:26;101313.56;;;2.49;100.00
51928;BME280;37953;52.806;18.270;2023-04-06T00:20:52;101315.16;;;2.47;100.00
51928;BME280;37953;52.806;18.270;2023-04-06T00:23:18;101321.13;;;2.46;100.00
51928;BME280;37953;52.806;18.270;2023-04-06T00:25:44;101322.72;;;2.44;100.00
51928;BME280;37953;52.806;18.270;2023-04-06T00:28:09;101315.69;;;2.40;100.00
51928;BME280;37953;52.806;18.270;2023-04-06T00:30:41;101312.16;;;2.38;100.00
51928;BME280;37953;52.806;18.270;2023-04-06T00:33:07;101312.00;;;2.35;100.00
51928;BME280;37953;52.806;18.270;2023-04-06T00:35:33;101319.53;;;2.32;100.00
51928;BME280;37953;52.806;18.270;2023-04-06T00:37:59;101311.78;;;2.30;100.00
51928;BME280;37953;52.806;18.270;2023-04-06T00:40:25;101316.75;;;2.27;100.00
51928;BME280;37953;52.806;18.270;2023-04-06T00:42:53;101320.94;;;2.25;100.00
51928;BME280;37953;52.806;18.270;2023-04-06T00:45:18;101316.53;;;2.22;100.00
51928;BME280;37953;52.806;18.270;2023-04-06T00:47:44;101310.50;;;2.22;100.00
51928;BME280;37953;52.806;18.270;2023-04-06T00:50:10;101317.19;;;2.18;100.00
51928;BME280;37953;52.806;18.270;2023-04-06T00:52:36;101311.16;;;2.18;100.00
51928;BME280;37953;52.806;18.270;2023-04-06T00:55:02;101316.22;;;2.16;100.00
51928;BME280;37953;52.806;18.270;2023-04-06T00:57:28;101315.31;;;2.16;100.00
51928;BME280;37953;52.806;18.270;2023-04-06T00:59:54;101311.88;;;2.15;100.00
51928;BME280;37953;52.806;18.270;2023-04-06T01:02:20;101316.13;;;2.15;100.00
51928;BME280;37953;52.806;18.270;2023-04-06T01:04:45;101317.84;;;2.14;100.00
51928;BME280;37953;52.806;18.270;2023-04-06T01:07:11;101304.84;;;2.11;100.00
51928;BME280;37953;52.806;18.270;2023-04-06T01:09:37;101306.53;;;2.11;100.00
51928;BME280;37953;52.806;18.270;2023-04-06T01:12:03;101312.47;;;2.10;100.00
51928;BME280;37953;52.806;18.270;2023-04-06T01:14:29;101300.44;;;2.09;100.00
51928;BME280;37953;52.806;18.270;2023-04-06T01:17:01;101315.81;;;2.09;100.00
51928;BME280;37953;52.806;18.270;2023-04-06T01:19:27;101313.19;;;2.07;100.00
51928;BME280;37953;52.806;18.270;2023-04-06T01:21:53;101307.19;;;2.07;100.00
51928;BME280;37953;52.806;18.270;2023-04-06T01:24:19;101310.56;;;2.06;100.00
51928;BME280;37953;52.806;18.270;2023-04-06T01:26:45;101303.66;;;2.04;100.00
51928;BME280;37953;52.806;18.270;2023-04-06T01:29:11;101308.78;;;2.04;100.00
51928;BME280;37953;52.806;18.270;2023-04-06T01:31:37;101301.91;;;2.03;100.00
51928;BME280;37953;52.806;18.270;2023-04-06T01:34:03;101307.03;;;2.03;100.00
51928;BME280;37953;52.806;18.270;2023-04-06T01:36:29;101301.81;;;2.02;100.00
51928;BME280;37953;52.806;18.270;2023-04-06T01:38:54;101304.31;;;2.00;100.00
51928;BME280;37953;52.806;18.270;2023-04-06T01:41:21;101300.72;;;1.97;100.00
51928;BME280;37953;52.806;18.270;2023-04-06T01:43:47;101308.31;;;1.95;100.00
51928;BME280;37953;52.806;18.270;2023-04-06T01:46:13;101304.00;;;1.94;100.00
51928;BME280;37953;52.806;18.270;2023-04-06T01:51:06;101302.97;;;1.91;100.00
51928;BME280;37953;52.806;18.270;2023-04-06T01:53:32;101301.19;;;1.90;100.00
51928;BME280;37953;52.806;18.270;2023-04-06T01:55:58;101298.53;;;1.88;100.00
51928;BME280;37953;52.806;18.270;2023-04-06T01:58:24;101298.50;;;1.87;100.00
51928;BME280;37953;52.806;18.270;2023-04-06T02:00:49;101307.78;;;1.85;100.00
51928;BME280;37953;52.806;18.270;2023-04-06T02:03:15;101310.25;;;1.83;100.00
51928;BME280;37953;52.806;18.270;2023-04-06T02:05:41;101300.75;;;1.80;100.00
51928;BME280;37953;52.806;18.270;2023-04-06T02:08:07;101309.16;;;1.78;100.00
51928;BME280;37953;52.806;18.270;2023-04-06T02:10:33;101303.94;;;1.76;100.00
51928;BME280;37953;52.806;18.270;2023-04-06T02:12:59;101302.97;;;1.74;100.00
51928;BME280;37953;52.806;18.270;2023-04-06T02:15:25;101305.44;;;1.73;100.00
51928;BME280;37953;52.806;18.270;2023-04-06T02:17:51;101308.75;;;1.70;100.00
51928;BME280;37953;52.806;18.270;2023-04-06T02:20:17;101301.78;;;1.68;100.00
51928;BME280;37953;52.806;18.270;2023-04-06T02:22:43;101306.81;;;1.66;100.00
51928;BME280;37953;52.806;18.270;2023-04-06T02:25:09;101308.50;;;1.66;100.00
51928;BME280;37953;52.806;18.270;2023-04-06T02:27:35;101307.53;;;1.63;100.00
51928;BME280;37953;52.806;18.270;2023-04-06T02:30:01;101306.69;;;1.63;100.00
51928;BME280;37953;52.806;18.270;2023-04-06T02:32:27;101308.34;;;1.62;100.00
51928;BME280;37953;52.806;18.270;2023-04-06T02:34:53;101309.16;;;1.61;100.00
51928;BME280;37953;52.806;18.270;2023-04-06T02:37:19;101309.16;;;1.61;100.00
51928;BME280;37953;52.806;18.270;2023-04-06T02:39:45;101312.50;;;1.60;100.00
51928;BME280;37953;52.806;18.270;2023-04-06T02:42:11;101310.84;;;1.61;100.00
51928;BME280;37953;52.806;18.270;2023-04-06T02:44:37;101315.13;;;1.62;100.00
51928;BME280;37953;52.806;18.270;2023-04-06T02:47:02;101310.03;;;1.62;100.00
51928;BME280;37953;52.806;18.270;2023-04-06T02:49:28;101313.53;;;1.64;100.00
51928;BME280;37953;52.806;18.270;2023-04-06T02:51:54;101319.63;;;1.66;100.00
51928;BME280;37953;52.806;18.270;2023-04-06T02:54:26;101318.81;;;1.67;100.00
51928;BME280;37953;52.806;18.270;2023-04-06T02:56:52;101319.72;;;1.68;100.00
51928;BME280;37953;52.806;18.270;2023-04-06T02:59:17;101322.28;;;1.68;100.00
51928;BME280;37953;52.806;18.270;2023-04-06T03:01:46;101318.91;;;1.69;100.00
51928;BME280;37953;52.806;18.270;2023-04-06T03:04:12;101324.03;;;1.69;100.00
51928;BME280;37953;52.806;18.270;2023-04-06T03:06:38;101319.00;;;1.70;100.00
51928;BME280;37953;52.806;18.270;2023-04-06T03:09:03;101323.28;;;1.71;100.00
51928;BME280;37953;52.806;18.270;2023-04-06T03:11:29;101322.50;;;1.72;100.00
51928;BME280;37953;52.806;18.270;2023-04-06T03:13:55;101316.56;;;1.73;100.00
51928;BME280;37953;52.806;18.270;2023-04-06T03:16:21;101317.47;;;1.74;100.00
51928;BME280;37953;52.806;18.270;2023-04-06T03:21:33;101323.63;;;1.77;100.00
51928;BME280;37953;52.806;18.270;2023-04-06T03:24:00;101314.34;;;1.79;100.00
51928;BME280;37953;52.806;18.270;2023-04-06T03:26:25;101316.03;;;1.79;100.00
51928;BME280;37953;52.806;18.270;2023-04-06T03:28:51;101316.97;;;1.81;100.00
51928;BME280;37953;52.806;18.270;2023-04-06T03:31:17;101321.22;;;1.80;100.00
51928;BME280;37953;52.806;18.270;2023-04-06T03:33:42;101317.84;;;1.81;100.00
51928;BME280;37953;52.806;18.270;2023-04-06T03:36:08;101322.19;;;1.82;100.00
51928;BME280;37953;52.806;18.270;2023-04-06T03:38:34;101315.47;;;1.85;100.00
51928;BME280;37953;52.806;18.270;2023-04-06T03:40:59;101322.25;;;1.84;100.00
51928;BME280;37953;52.806;18.270;2023-04-06T03:43:25;101318.91;;;1.85;100.00
51928;BME280;37953;52.806;18.270;2023-04-06T03:45:51;101323.22;;;1.86;100.00
51928;BME280;37953;52.806;18.270;2023-04-06T03:48:17;101326.69;;;1.87;100.00
51928;BME280;37953;52.806;18.270;2023-04-06T03:50:42;101326.69;;;1.87;100.00
51928;BME280;37953;52.806;18.270;2023-04-06T03:53:08;101325.88;;;1.88;100.00
51928;BME280;37953;52.806;18.270;2023-04-06T03:55:34;101332.75;;;1.89;100.00
51928;BME280;37953;52.806;18.270;2023-04-06T03:58:00;101335.31;;;1.89;100.00
51928;BME280;37953;52.806;18.270;2023-04-06T04:00:26;101332.81;;;1.90;100.00
51928;BME280;37953;52.806;18.270;2023-04-06T04:02:52;101328.59;;;1.91;100.00
51928;BME280;37953;52.806;18.270;2023-04-06T04:05:18;101337.16;;;1.91;100.00
51928;BME280;37953;52.806;18.270;2023-04-06T04:07:43;101332.91;;;1.92;100.00
51928;BME280;37953;52.806;18.270;2023-04-06T04:10:09;101343.16;;;1.92;100.00
51928;BME280;37953;52.806;18.270;2023-04-06T04:12:35;101338.91;;;1.92;100.00
51928;BME280;37953;52.806;18.270;2023-04-06T04:15:01;101338.91;;;1.92;100.00
51928;BME280;37953;52.806;18.270;2023-04-06T04:17:28;101338.91;;;1.92;100.00
51928;BME280;37953;52.806;18.270;2023-04-06T04:19:54;101337.16;;;1.91;100.00
51928;BME280;37953;52.806;18.270;2023-04-06T04:22:20;101338.03;;;1.92;100.00
51928;BME280;37953;52.806;18.270;2023-04-06T04:24:45;101337.16;;;1.91;100.00
51928;BME280;37953;52.806;18.270;2023-04-06T04:27:11;101341.56;;;1.94;100.00
51928;BME280;37953;52.806;18.270;2023-04-06T04:29:37;101332.19;;;1.94;100.00
51928;BME280;37953;52.806;18.270;2023-04-06T04:32:02;101327.13;;;1.96;100.00
51928;BME280;37953;52.806;18.270;2023-04-06T04:34:28;101328.00;;;1.96;100.00
51928;BME280;37953;52.806;18.270;2023-04-06T04:36:54;101334.97;;;1.99;100.00
51928;BME280;37953;52.806;18.270;2023-04-06T04:39:20;101337.63;;;2.00;100.00
51928;BME280;37953;52.806;18.270;2023-04-06T04:41:46;101332.50;;;2.00;100.00
51928;BME280;37953;52.806;18.270;2023-04-06T04:44:11;101335.22;;;2.03;100.00
51928;BME280;37953;52.806;18.270;2023-04-06T04:46:37;101336.09;;;2.04;100.00
51928;BME280;37953;52.806;18.270;2023-04-06T04:49:03;101338.75;;;2.06;100.00
51928;BME280;37953;52.806;18.270;2023-04-06T04:51:31;101339.72;;;2.08;100.00
51928;BME280;37953;52.806;18.270;2023-04-06T04:53:57;101335.56;;;2.10;100.00
51928;BME280;37953;52.806;18.270;2023-04-06T04:56:24;101338.25;;;2.13;100.00
51928;BME280;37953;52.806;18.270;2023-04-06T04:58:49;101336.56;;;2.13;100.00
51928;BME280;37953;52.806;18.270;2023-04-06T05:01:15;101338.38;;;2.16;100.00
51928;BME280;37953;52.806;18.270;2023-04-06T05:03:41;101337.59;;;2.17;100.00
51928;BME280;37953;52.806;18.270;2023-04-06T05:06:07;101340.31;;;2.20;100.00
51928;BME280;37953;52.806;18.270;2023-04-06T05:08:33;101345.53;;;2.21;100.00
51928;BME280;37953;52.806;18.270;2023-04-06T05:10:59;101341.44;;;2.25;100.00
51928;BME280;37953;52.806;18.270;2023-04-06T05:13:24;101346.72;;;2.28;100.00
51928;BME280;37953;52.806;18.270;2023-04-06T05:15:50;101345.97;;;2.31;100.00
51928;BME280;37953;52.806;18.270;2023-04-06T05:18:16;101346.94;;;2.33;100.00
51928;BME280;37953;52.806;18.270;2023-04-06T05:20:42;101352.22;;;2.36;100.00
51928;BME280;37953;52.806;18.270;2023-04-06T05:23:08;101358.31;;;2.38;100.00
51928;BME280;37953;52.806;18.270;2023-04-06T05:25:34;101356.72;;;2.40;100.00
51928;BME280;37953;52.806;18.270;2023-04-06T05:28:00;101361.09;;;2.42;100.00
51928;BME280;37953;52.806;18.270;2023-04-06T05:30:25;101358.63;;;2.44;100.00
51928;BME280;37953;52.806;18.270;2023-04-06T05:32:51;101359.50;;;2.44;100.00
51928;BME280;37953;52.806;18.270;2023-04-06T05:35:17;101351.03;;;2.46;100.00
51928;BME280;37953;52.806;18.270;2023-04-06T05:37:44;101359.59;;;2.46;100.00
51928;BME280;37953;52.806;18.270;2023-04-06T05:40:10;101352.84;;;2.48;100.00
51928;BME280;37953;52.806;18.270;2023-04-06T05:42:39;101352.91;;;2.50;100.00
51928;BME280;37953;52.806;18.270;2023-04-06T05:45:06;101353.84;;;2.52;100.00
51928;BME280;37953;52.806;18.270;2023-04-06T05:47:32;101345.38;;;2.53;100.00
51928;BME280;37953;52.806;18.270;2023-04-06T05:49:59;101348.91;;;2.55;100.00
51928;BME280;37953;52.806;18.270;2023-04-06T05:52:24;101350.72;;;2.57;100.00
51928;BME280;37953;52.806;18.270;2023-04-06T05:54:50;101350.00;;;2.60;100.00
51928;BME280;37953;52.806;18.270;2023-04-06T05:57:16;101349.28;;;2.62;100.00
51928;BME280;37953;52.806;18.270;2023-04-06T05:59:42;101354.47;;;2.64;100.00
51928;BME280;37953;52.806;18.270;2023-04-06T06:02:08;101351.13;;;2.65;100.00
51928;BME280;37953;52.806;18.270;2023-04-06T06:04:34;101358.16;;;2.69;100.00
51928;BME280;37953;52.806;18.270;2023-04-06T06:07:00;101359.13;;;2.71;100.00
51928;BME280;37953;52.806;18.270;2023-04-06T06:09:32;101352.44;;;2.75;100.00
51928;BME280;37953;52.806;18.270;2023-04-06T06:11:57;101348.34;;;2.78;100.00
51928;BME280;37953;52.806;18.270;2023-04-06T06:14:23;101348.56;;;2.83;100.00
51928;BME280;37953;52.806;18.270;2023-04-06T06:16:49;101348.72;;;2.86;100.00
51928;BME280;37953;52.806;18.270;2023-04-06T06:19:14;101354.84;;;2.90;100.00
51928;BME280;37953;52.806;18.270;2023-04-06T06:21:40;101357.59;;;2.93;100.00
51928;BME280;37953;52.806;18.270;2023-04-06T06:24:06;101348.28;;;2.95;100.00
51928;BME280;37953;52.806;18.270;2023-04-06T06:26:35;101347.63;;;2.99;100.00
51928;BME280;37953;52.806;18.270;2023-04-06T06:29:03;101351.19;;;3.02;100.00
51928;BME280;37953;52.806;18.270;2023-04-06T06:31:30;101351.34;;;3.05;100.00
51928;BME280;37953;52.806;18.270;2023-04-06T06:33:56;101355.81;;;3.10;100.00
51928;BME280;37953;52.806;18.270;2023-04-06T06:36:22;101348.31;;;3.14;100.00
51928;BME280;37953;52.806;18.270;2023-04-06T06:38:48;101348.47;;;3.17;100.00
51928;BME280;37953;52.806;18.270;2023-04-06T06:41:14;101349.50;;;3.21;100.00
51928;BME280;37953;52.806;18.270;2023-04-06T06:43:43;101352.22;;;3.24;100.00
51928;BME280;37953;52.806;18.270;2023-04-06T06:46:10;101341.19;;;3.26;100.00
51928;BME280;37953;52.806;18.270;2023-04-06T06:48:36;101337.06;;;3.30;100.00
51928;BME280;37953;52.806;18.270;2023-04-06T06:51:01;101342.44;;;3.35;100.00
51928;BME280;37953;52.806;18.270;2023-04-06T06:53:27;101338.38;;;3.40;100.00
51928;BME280;37953;52.806;18.270;2023-04-06T06:55:53;101336.84;;;3.43;100.00
51928;BME280;37953;52.806;18.270;2023-04-06T06:58:19;101336.19;;;3.47;100.00
51928;BME280;37953;52.806;18.270;2023-04-06T07:00:45;101334.59;;;3.51;100.00
51928;BME280;37953;52.806;18.270;2023-04-06T07:03:11;101338.19;;;3.55;100.00
51928;BME280;37953;52.806;18.270;2023-04-06T07:05:37;101339.31;;;3.60;100.00
51928;BME280;37953;52.806;18.270;2023-04-06T07:08:03;101334.38;;;3.64;100.00
51928;BME280;37953;52.806;18.270;2023-04-06T07:10:29;101344.91;;;3.71;100.00
51928;BME280;37953;52.806;18.270;2023-04-06T07:12:55;101344.25;;;3.75;100.00
51928;BME280;37953;52.806;18.270;2023-04-06T07:15:20;101343.53;;;3.79;100.00
51928;BME280;37953;52.806;18.270;2023-04-06T07:17:46;101343.78;;;3.83;100.00
51928;BME280;37953;52.806;18.270;2023-04-06T07:20:13;101338.75;;;3.86;100.00
51928;BME280;37953;52.806;18.270;2023-04-06T07:22:39;101335.50;;;3.91;100.00
51928;BME280;37953;52.806;18.270;2023-04-06T07:25:05;101335.69;;;3.95;100.00
51928;BME280;37953;52.806;18.270;2023-04-06T07:27:31;101339.38;;;4.00;100.00
51928;BME280;37953;52.806;18.270;2023-04-06T07:29:58;101332.63;;;4.04;100.00
51928;BME280;37953;52.806;18.270;2023-04-06T07:32:24;101333.75;;;4.09;99.40
51928;BME280;37953;52.806;18.270;2023-04-06T07:34:50;101338.91;;;4.11;95.44
51928;BME280;37953;52.806;18.270;2023-04-06T07:37:15;101332.22;;;4.14;94.58
51928;BME280;37953;52.806;18.270;2023-04-06T07:39:41;101330.69;;;4.18;94.24
51928;BME280;37953;52.806;18.270;2023-04-06T07:42:07;101323.97;;;4.21;94.11
51928;BME280;37953;52.806;18.270;2023-04-06T07:44:33;101325.91;;;4.27;94.97
51928;BME280;37953;52.806;18.270;2023-04-06T07:47:01;101327.00;;;4.32;94.63
51928;BME280;37953;52.806;18.270;2023-04-06T07:49:27;101322.13;;;4.38;94.90
51928;BME280;37953;52.806;18.270;2023-04-06T07:51:53;101329.06;;;4.41;91.43
51928;BME280;37953;52.806;18.270;2023-04-06T07:54:19;101336.03;;;4.43;89.59
51928;BME280;37953;52.806;18.270;2023-04-06T07:56:46;101326.69;;;4.45;88.66
51928;BME280;37953;52.806;18.270;2023-04-06T07:59:12;101332.00;;;4.50;88.69
51928;BME280;37953;52.806;18.270;2023-04-06T08:01:39;101328.69;;;4.53;88.84
51928;BME280;37953;52.806;18.270;2023-04-06T08:04:05;101327.19;;;4.58;86.92
51928;BME280;37953;52.806;18.270;2023-04-06T08:06:31;101328.13;;;4.60;86.50
51928;BME280;37953;52.806;18.270;2023-04-06T08:08:56;101330.81;;;4.63;85.57
51928;BME280;37953;52.806;18.270;2023-04-06T08:11:23;101331.75;;;4.65;82.35
51928;BME280;37953;52.806;18.270;2023-04-06T08:13:49;101331.91;;;4.68;81.98
51928;BME280;37953;52.806;18.270;2023-04-06T08:16:15;101331.94;;;4.69;81.98
51928;BME280;37953;52.806;18.270;2023-04-06T08:18:40;101333.78;;;4.72;81.43
51928;BME280;37953;52.806;18.270;2023-04-06T08:21:07;101327.00;;;4.74;81.41
51928;BME280;37953;52.806;18.270;2023-04-06T08:23:33;101328.81;;;4.77;80.97
51928;BME280;37953;52.806;18.270;2023-04-06T08:25:59;101320.34;;;4.79;80.82
51928;BME280;37953;52.806;18.270;2023-04-06T08:28:25;101324.78;;;4.83;82.52
51928;BME280;37953;52.806;18.270;2023-04-06T08:30:52;101325.72;;;4.85;82.48
51928;BME280;37953;52.806;18.270;2023-04-06T08:33:18;101324.16;;;4.89;82.47
51928;BME280;37953;52.806;18.270;2023-04-06T08:35:44;101326.78;;;4.90;81.95
51928;BME280;37953;52.806;18.270;2023-04-06T08:38:10;101327.72;;;4.93;82.29
51928;BME280;37953;52.806;18.270;2023-04-06T08:40:37;101331.22;;;4.95;82.47
51928;BME280;37953;52.806;18.270;2023-04-06T08:43:05;101321.81;;;4.95;80.68
51928;BME280;37953;52.806;18.270;2023-04-06T08:45:38;101327.03;;;4.97;80.95
51928;BME280;37953;52.806;18.270;2023-04-06T08:48:03;101327.97;;;4.99;81.83
51928;BME280;37953;52.806;18.270;2023-04-06T08:50:32;101327.19;;;5.01;81.96
51928;BME280;37953;52.806;18.270;2023-04-06T08:52:58;101328.13;;;5.03;82.23
51928;BME280;37953;52.806;18.270;2023-04-06T08:55:25;101329.06;;;5.05;81.26
51928;BME280;37953;52.806;18.270;2023-04-06T08:57:50;101324.88;;;5.07;81.49
51928;BME280;37953;52.806;18.270;2023-04-06T09:00:20;101325.81;;;5.09;82.58
51928;BME280;37953;52.806;18.270;2023-04-06T09:02:46;101316.38;;;5.10;82.56
51928;BME280;37953;52.806;18.270;2023-04-06T09:05:12;101319.88;;;5.12;81.03
51928;BME280;37953;52.806;18.270;2023-04-06T09:07:38;101319.09;;;5.13;80.17
51928;BME280;37953;52.806;18.270;2023-04-06T09:10:05;101320.03;;;5.15;80.01
51928;BME280;37953;52.806;18.270;2023-04-06T09:12:31;101319.19;;;5.16;79.68
51928;BME280;37953;52.806;18.270;2023-04-06T09:15:04;101315.81;;;5.17;79.53
51928;BME280;37953;52.806;18.270;2023-04-06T09:17:31;101320.13;;;5.18;78.30
51928;BME280;37953;52.806;18.270;2023-04-06T09:20:02;101316.75;;;5.19;78.36
51928;BME280;37953;52.806;18.270;2023-04-06T09:22:40;101320.19;;;5.20;79.07
51928;BME280;37953;52.806;18.270;2023-04-06T09:25:08;101318.63;;;5.23;80.31
51928;BME280;37953;52.806;18.270;2023-04-06T09:27:37;101315.22;;;5.24;78.75
51928;BME280;37953;52.806;18.270;2023-04-06T09:32:31;101305.91;;;5.28;77.17
51928;BME280;37953;52.806;18.270;2023-04-06T09:35:09;101309.41;;;5.30;77.25
51928;BME280;37953;52.806;18.270;2023-04-06T09:37:35;101313.00;;;5.34;78.26
51928;BME280;37953;52.806;18.270;2023-04-06T09:40:02;101315.69;;;5.37;78.11
51928;BME280;37953;52.806;18.270;2023-04-06T09:42:27;101308.88;;;5.39;77.17
51928;BME280;37953;52.806;18.270;2023-04-06T09:44:54;101306.38;;;5.40;77.08
51928;BME280;37953;52.806;18.270;2023-04-06T09:47:20;101305.59;;;5.43;76.85
51928;BME280;37953;52.806;18.270;2023-04-06T09:49:50;101301.31;;;5.43;76.98
51928;BME280;37953;52.806;18.270;2023-04-06T09:52:15;101301.38;;;5.45;75.38
51928;BME280;37953;52.806;18.270;2023-04-06T09:54:42;101302.38;;;5.48;78.01
51928;BME280;37953;52.806;18.270;2023-04-06T10:02:25;101283.31;;;5.67;78.21
51928;BME280;37953;52.806;18.270;2023-04-06T10:04:59;101286.97;;;5.74;77.14
51928;BME280;37953;52.806;18.270;2023-04-06T10:07:26;101284.66;;;5.82;77.19
51928;BME280;37953;52.806;18.270;2023-04-06T10:09:52;101284.88;;;5.88;76.04
51928;BME280;37953;52.806;18.270;2023-04-06T10:12:18;101273.91;;;5.94;75.05
51928;BME280;37953;52.806;18.270;2023-04-06T10:14:45;101274.16;;;6.00;75.97
51928;BME280;37953;52.806;18.270;2023-04-06T10:17:15;101276.94;;;6.06;76.23
51928;BME280;37953;52.806;18.270;2023-04-06T10:19:49;101272.78;;;6.11;77.98
51928;BME280;37953;52.806;18.270;2023-04-06T10:22:24;101263.53;;;6.16;75.87
51928;BME280;37953;52.806;18.270;2023-04-06T10:24:54;101263.69;;;6.21;76.01
51928;BME280;37953;52.806;18.270;2023-04-06T10:27:32;101256.91;;;6.24;74.59
51928;BME280;37953;52.806;18.270;2023-04-06T10:30:04;101267.47;;;6.32;75.41
51928;BME280;37953;52.806;18.270;2023-04-06T10:32:37;101256.44;;;6.36;75.04
51928;BME280;37953;52.806;18.270;2023-04-06T10:35:09;101261.72;;;6.41;74.89
51928;BME280;37953;52.806;18.270;2023-04-06T10:37:45;101265.38;;;6.47;75.62
51928;BME280;37953;52.806;18.270;2023-04-06T10:43:06;101245.88;;;6.56;73.20
51928;BME280;37953;52.806;18.270;2023-04-06T10:45:35;101249.47;;;6.61;72.67
51928;BME280;37953;52.806;18.270;2023-04-06T10:48:22;101230.69;;;6.65;73.86
51928;BME280;37953;52.806;18.270;2023-04-06T10:50:55;101237.78;;;6.72;73.86
51928;BME280;37953;52.806;18.270;2023-04-06T10:53:22;101236.19;;;6.77;73.67
51928;BME280;37953;52.806;18.270;2023-04-06T10:55:49;101233.84;;;6.85;75.19
51928;BME280;37953;52.806;18.270;2023-04-06T10:58:18;101230.63;;;6.92;76.75
51928;BME280;37953;52.806;18.270;2023-04-06T11:00:48;101223.06;;;6.98;73.82
51928;BME280;37953;52.806;18.270;2023-04-06T11:03:14;101226.59;;;7.02;74.23
51928;BME280;37953;52.806;18.270;2023-04-06T11:05:44;101226.72;;;7.05;72.57
51928;BME280;37953;52.806;18.270;2023-04-06T11:08:21;101220.78;;;7.09;73.24
51928;BME280;37953;52.806;18.270;2023-04-06T11:11:09;101226.13;;;7.15;73.43
51928;BME280;37953;52.806;18.270;2023-04-06T11:13:42;101215.94;;;7.20;72.44
51928;BME280;37953;52.806;18.270;2023-04-06T11:16:12;101216.16;;;7.27;72.08
51928;BME280;37953;52.806;18.270;2023-04-06T11:18:46;101215.41;;;7.31;72.07
51928;BME280;37953;52.806;18.270;2023-04-06T11:21:13;101213.00;;;7.38;71.77
51928;BME280;37953;52.806;18.270;2023-04-06T11:23:49;101201.94;;;7.43;71.98
51928;BME280;37953;52.806;18.270;2023-04-06T11:26:15;101196.03;;;7.47;71.45
51928;BME280;37953;52.806;18.270;2023-04-06T11:28:41;101195.31;;;7.53;75.02
51928;BME280;37953;52.806;18.270;2023-04-06T11:31:11;101185.97;;;7.58;74.89
51928;BME280;37953;52.806;18.270;2023-04-06T11:33:37;101194.75;;;7.65;72.29
51928;BME280;37953;52.806;18.270;2023-04-06T11:36:04;101192.34;;;7.71;73.24
51928;BME280;37953;52.806;18.270;2023-04-06T11:38:31;101191.66;;;7.78;72.82
51928;BME280;37953;52.806;18.270;2023-04-06T11:40:58;101188.25;;;7.81;72.21
51928;BME280;37953;52.806;18.270;2023-04-06T11:43:29;101184.91;;;7.83;73.31
51928;BME280;37953;52.806;18.270;2023-04-06T11:46:01;101190.09;;;7.85;73.09
51928;BME280;37953;52.806;18.270;2023-04-06T11:48:27;101186.63;;;7.84;72.90
51928;BME280;37953;52.806;18.270;2023-04-06T11:50:57;101183.22;;;7.85;72.95
51928;BME280;37953;52.806;18.270;2023-04-06T11:53:23;101176.34;;;7.86;76.72
51928;BME280;37953;52.806;18.270;2023-04-06T11:55:49;101176.38;;;7.87;77.35
51928;BME280;37953;52.806;18.270;2023-04-06T11:58:15;101174.72;;;7.91;75.98
51928;BME280;37953;52.806;18.270;2023-04-06T12:00:41;101180.81;;;7.93;75.04
51928;BME280;37953;52.806;18.270;2023-04-06T12:03:13;101168.78;;;7.95;73.49
51928;BME280;37953;52.806;18.270;2023-04-06T12:05:39;101177.47;;;7.97;71.96
51928;BME280;37953;52.806;18.270;2023-04-06T12:08:05;101169.75;;;7.99;71.96
51928;BME280;37953;52.806;18.270;2023-04-06T12:10:32;101172.38;;;8.00;71.86
51928;BME280;37953;52.806;18.270;2023-04-06T12:12:58;101161.22;;;8.03;71.24
51928;BME280;37953;52.806;18.270;2023-04-06T12:15:25;101155.22;;;8.04;71.42
51928;BME280;37953;52.806;18.270;2023-04-06T12:17:50;101160.44;;;8.05;70.21
51928;BME280;37953;52.806;18.270;2023-04-06T12:20:16;101158.81;;;8.10;77.33
51928;BME280;37953;52.806;18.270;2023-04-06T12:22:43;101153.78;;;8.15;74.54
51928;BME280;37953;52.806;18.270;2023-04-06T12:25:09;101146.94;;;8.19;72.05
51928;BME280;37953;52.806;18.270;2023-04-06T12:27:34;101153.94;;;8.23;71.63
51928;BME280;37953;52.806;18.270;2023-04-06T12:30:01;101147.06;;;8.25;73.11
51928;BME280;37953;52.806;18.270;2023-04-06T12:32:29;101148.03;;;8.28;72.57
51928;BME280;37953;52.806;18.270;2023-04-06T12:34:55;101150.69;;;8.31;70.91
51928;BME280;37953;52.806;18.270;2023-04-06T12:37:20;101142.94;;;8.33;71.03
51928;BME280;37953;52.806;18.270;2023-04-06T12:39:46;101136.16;;;8.38;71.41
51928;BME280;37953;52.806;18.270;2023-04-06T12:42:12;101138.03;;;8.44;71.32
51928;BME280;37953;52.806;18.270;2023-04-06T12:44:47;101137.34;;;8.51;70.08
51928;BME280;37953;52.806;18.270;2023-04-06T12:47:13;101139.22;;;8.58;69.36
51928;BME280;37953;52.806;18.270;2023-04-06T12:49:39;101132.47;;;8.65;68.19
51928;BME280;37953;52.806;18.270;2023-04-06T12:52:05;101120.47;;;8.68;68.07
51928;BME280;37953;52.806;18.270;2023-04-06T12:54:32;101124.88;;;8.72;67.43
51928;BME280;37953;52.806;18.270;2023-04-06T12:57:02;101115.41;;;8.74;65.65